Time;durP1;ratioP1;P1;durP2;ratioP2;P2;SDS_P1;SDS_P2;PMS_P1;PMS_P2;Temp;Humidity;BMP_temperature;BMP_pressure;BME280_temperature;BME280_humidity;BME280_pressure;Samples;Min_cycle;Max_cycle;Signal;HPM_P1;HPM_P2
2022/10/30 00:07:47;;;;;;;18.30;8.20;;;;;;;12.76;100.00;100678.71;632203;1301;138858;-83
2022/10/30 00:32:08;;;;;;;17.30;8.00;;;;;;;13.07;100.00;100694.16;622087;1347;1286958;-82
2022/10/30 00:47:34;;;;;;;31.60;14.60;;;;;;;13.17;100.00;100689.18;632733;1311;138840;-84
2022/10/30 01:02:40;;;;;;;15.90;8.20;;;;;;;13.14;100.00;100659.14;633297;1303;139270;-83
2022/10/30 01:18:18;;;;;;;13.30;7.50;;;;;;;13.18;100.00;100642.90;632540;1316;138623;-83
2022/10/30 01:34:06;;;;;;;21.50;10.30;;;;;;;13.30;100.00;100678.16;632329;1307;138842;-83
2022/10/30 01:49:36;;;;;;;23.40;11.50;;;;;;;13.29;100.00;100701.42;631763;1316;138883;-82
2022/10/30 02:04:40;;;;;;;18.40;8.40;;;;;;;13.12;100.00;100695.63;634340;1310;139823;-82
2022/10/30 02:19:44;;;;;;;14.90;8.40;;;;;;;13.10;100.00;100689.34;631811;1311;138536;-82
2022/10/30 02:34:47;;;;;;;16.90;8.40;;;;;;;13.15;100.00;100690.05;631548;1308;139520;-83
2022/10/30 02:49:51;;;;;;;29.10;12.00;;;;;;;12.97;100.00;100694.31;631460;1307;139499;-83
2022/10/30 03:04:54;;;;;;;16.90;8.20;;;;;;;12.67;100.00;100688.33;631522;1313;139152;-83
2022/10/30 03:19:57;;;;;;;18.60;11.20;;;;;;;12.68;100.00;100696.80;631457;1306;139667;-82
2022/10/30 03:35:00;;;;;;;19.90;9.00;;;;;;;12.67;100.00;100693.40;631371;1308;140373;-83
2022/10/30 03:50:04;;;;;;;14.50;8.50;;;;;;;12.64;100.00;100703.35;631555;1307;139271;-82
2022/10/30 04:05:09;;;;;;;16.20;7.70;;;;;;;12.58;100.00;100687.92;631419;1308;140132;-82
2022/10/30 04:20:12;;;;;;;14.20;8.80;;;;;;;12.57;100.00;100696.23;631549;1301;139068;-83
2022/10/30 04:35:17;;;;;;;18.10;9.30;;;;;;;12.55;100.00;100703.80;631688;1307;138956;-82
2022/10/30 04:50:20;;;;;;;16.70;8.60;;;;;;;12.38;100.00;100710.39;633957;1305;138814;-81
2022/10/30 05:05:24;;;;;;;21.50;13.70;;;;;;;12.27;100.00;100702.34;634295;1297;140113;-82
2022/10/30 05:20:28;;;;;;;18.70;9.90;;;;;;;12.37;100.00;100701.48;637089;1301;139230;-82
2022/10/30 05:35:33;;;;;;;26.90;12.80;;;;;;;12.32;100.00;100700.72;639387;1295;139603;-83
2022/10/30 05:50:38;;;;;;;18.70;10.60;;;;;;;12.06;100.00;100718.23;636783;1295;140908;-83
2022/10/30 06:05:59;;;;;;;17.90;11.70;;;;;;;12.12;100.00;100732.10;636636;1310;139048;-82
2022/10/30 06:21:02;;;;;;;40.90;21.70;;;;;;;12.05;100.00;100737.48;639017;1300;140331;-83
2022/10/30 06:36:26;;;;;;;15.50;9.70;;;;;;;12.22;100.00;100734.91;636498;1294;139936;-83
2022/10/30 06:51:30;;;;;;;23.60;11.90;;;;;;;12.70;100.00;100731.89;636269;1306;139603;-83
2022/10/30 07:06:35;;;;;;;22.10;13.10;;;;;;;12.89;100.00;100732.47;637067;1315;139863;-82
2022/10/30 07:21:39;;;;;;;30.10;15.70;;;;;;;13.06;100.00;100737.66;636656;1296;139252;-84
2022/10/30 07:36:43;;;;;;;34.60;20.80;;;;;;;13.20;100.00;100735.98;637523;1303;140048;-84
2022/10/30 07:51:59;;;;;;;36.20;19.70;;;;;;;13.44;100.00;100751.58;636826;1310;139088;-84
2022/10/30 08:07:03;;;;;;;51.30;26.80;;;;;;;13.93;100.00;100771.71;637057;1311;139132;-84
2022/10/30 08:22:08;;;;;;;29.00;17.20;;;;;;;14.27;100.00;100775.20;636239;1316;140237;-84
2022/10/30 08:37:11;;;;;;;34.20;20.80;;;;;;;14.43;100.00;100774.08;640364;1302;139185;-84
2022/10/30 08:52:16;;;;;;;24.90;13.40;;;;;;;14.86;100.00;100765.77;639038;1287;139283;-85
2022/10/30 09:07:22;;;;;;;31.20;15.80;;;;;;;14.98;100.00;100785.10;637334;1301;138968;-84
2022/10/30 09:22:44;;;;;;;46.20;27.90;;;;;;;15.34;100.00;100795.63;636184;1310;139465;-85
2022/10/30 09:37:47;;;;;;;24.10;15.30;;;;;;;15.52;100.00;100791.24;636186;1304;139257;-85
2022/10/30 09:52:55;;;;;;;20.60;11.10;;;;;;;16.06;100.00;100792.08;636014;1316;139738;-82
2022/10/30 10:08:08;;;;;;;21.10;13.00;;;;;;;16.60;100.00;100801.40;636771;1316;139329;-82
2022/10/30 10:23:49;;;;;;;15.50;9.50;;;;;;;17.08;100.00;100809.35;640921;1307;139334;-83
2022/10/30 10:39:07;;;;;;;18.00;8.80;;;;;;;17.71;100.00;100798.16;639819;1307;139431;-83
2022/10/30 10:54:17;;;;;;;15.80;8.20;;;;;;;18.47;99.94;100787.19;639677;1313;139136;-84
2022/10/30 11:09:23;;;;;;;17.00;6.70;;;;;;;19.31;97.67;100789.83;638476;1307;138849;-85
2022/10/30 11:24:32;;;;;;;13.50;5.60;;;;;;;19.41;91.16;100785.52;637817;1306;138684;-85
2022/10/30 11:39:35;;;;;;;9.80;6.70;;;;;;;19.01;89.48;100782.31;639020;1297;138641;-85
2022/10/30 11:54:43;;;;;;;8.90;6.00;;;;;;;19.06;89.22;100755.05;637815;1313;138917;-85
2022/10/30 12:09:47;;;;;;;;;;;;;;;18.11;88.35;100752.10;637742;1296;139692;-85
2022/10/30 12:24:51;;;;;;;16.60;10.30;;;;;;;17.48;92.64;100738.77;638602;1300;126009;-84
2022/10/30 12:40:09;;;;;;;16.40;9.00;;;;;;;18.22;95.24;100739.20;638102;1304;1198433;-84
2022/10/30 12:55:20;;;;;;;13.50;8.30;;;;;;;17.80;94.40;100736.45;639591;1307;138870;-84
2022/10/30 13:10:47;;;;;;;16.00;7.20;;;;;;;17.52;96.52;100729.15;641687;1307;139299;-83
2022/10/30 13:26:07;;;;;;;38.10;13.70;;;;;;;17.57;97.39;100722.23;640767;1313;139278;-83
2022/10/30 13:41:46;;;;;;;40.30;23.90;;;;;;;17.28;97.92;100712.77;638112;1306;139672;-84
2022/10/30 13:56:52;;;;;;;18.30;11.10;;;;;;;16.97;99.07;100711.98;640544;1298;139741;-83
2022/10/30 14:11:55;;;;;;;53.50;34.60;;;;;;;16.83;99.85;100710.09;639306;1299;139653;-84
2022/10/30 14:27:02;;;;;;;36.10;20.40;;;;;;;16.81;100.00;100700.23;639827;1310;140128;-83
2022/10/30 14:42:15;;;;;;;28.20;14.10;;;;;;;17.16;100.00;100705.98;639165;1306;139098;-83
2022/10/30 14:58:13;;;;;;;49.80;28.20;;;;;;;17.89;99.95;100707.17;638216;1305;139880;-83
2022/10/30 15:13:20;;;;;;;31.70;23.10;;;;;;;17.88;98.99;100695.78;639049;1306;139865;-83
2022/10/30 15:28:32;;;;;;;34.00;21.00;;;;;;;16.94;99.83;100690.86;640354;1310;139449;-85
2022/10/30 15:43:40;;;;;;;112.40;55.70;;;;;;;16.29;100.00;100701.21;638173;1313;139231;-84
2022/10/30 15:58:57;;;;;;;66.80;34.90;;;;;;;15.71;100.00;100695.39;639340;1298;139851;-84
2022/10/30 16:14:07;;;;;;;68.50;38.00;;;;;;;15.40;100.00;100696.02;642564;1306;139213;-84
2022/10/30 16:29:17;;;;;;;51.70;30.00;;;;;;;14.99;100.00;100703.84;640708;1307;140215;-83
2022/10/30 16:44:29;;;;;;;59.40;32.30;;;;;;;14.63;100.00;100695.64;638365;1304;139426;-83
2022/10/30 16:59:38;;;;;;;250.60;108.40;;;;;;;14.50;100.00;100702.49;638807;1303;139597;-85
2022/10/30 17:15:03;;;;;;;127.80;64.30;;;;;;;14.34;100.00;100708.23;638777;1300;139519;-83
2022/10/30 17:30:27;;;;;;;118.70;46.60;;;;;;;13.89;100.00;100720.51;639341;1304;139349;-84
2022/10/30 17:45:31;;;;;;;209.30;74.20;;;;;;;13.60;100.00;100723.04;638618;1306;139191;-84
2022/10/30 18:00:35;;;;;;;93.40;43.00;;;;;;;13.62;100.00;100723.73;637960;1306;140402;-84
2022/10/30 18:15:56;;;;;;;112.30;53.00;;;;;;;13.51;100.00;100714.19;638774;1308;139283;-83
2022/10/30 18:44:56;;;;;;;159.80;67.60;;;;;;;13.20;100.00;100721.89;624046;1341;1083104;-83
2022/10/30 19:00:02;;;;;;;287.20;88.50;;;;;;;12.95;100.00;100718.95;633325;1311;139849;-83
2022/10/30 19:15:20;;;;;;;201.80;85.90;;;;;;;12.73;100.00;100722.21;632366;1304;139870;-84
2022/10/30 19:30:23;;;;;;;156.00;65.80;;;;;;;12.50;100.00;100728.08;632615;1310;140188;-84
2022/10/30 19:45:29;;;;;;;66.20;36.10;;;;;;;12.25;100.00;100734.34;631625;1307;139167;-84
2022/10/30 20:00:36;;;;;;;89.40;39.00;;;;;;;12.02;100.00;100736.96;631489;1316;140734;-84
2022/10/30 20:15:40;;;;;;;115.80;50.70;;;;;;;11.86;100.00;100737.14;634028;1312;138772;-83
2022/10/30 20:30:44;;;;;;;150.90;66.00;;;;;;;11.60;100.00;100739.14;634323;1307;139682;-83
2022/10/30 20:45:48;;;;;;;141.40;62.80;;;;;;;11.44;100.00;100743.77;634306;1305;139035;-83
2022/10/30 21:00:54;;;;;;;186.20;78.60;;;;;;;11.25;100.00;100741.52;637019;1311;139378;-82
2022/10/30 21:16:04;;;;;;;212.70;91.10;;;;;;;11.07;100.00;100733.94;638557;1305;140998;-83
2022/10/30 21:31:12;;;;;;;246.30;95.40;;;;;;;10.87;100.00;100722.46;635311;1304;141879;-83
2022/10/30 21:46:16;;;;;;;237.30;99.30;;;;;;;10.55;100.00;100706.88;634845;1307;139740;-83
2022/10/30 22:01:22;;;;;;;196.30;87.40;;;;;;;10.55;100.00;100702.84;634072;1314;141368;-83
2022/10/30 22:16:27;;;;;;;225.50;92.50;;;;;;;10.40;100.00;100697.00;634161;1304;140201;-84
2022/10/30 22:31:31;;;;;;;194.40;84.50;;;;;;;10.27;100.00;100692.60;633104;1315;139971;-83
2022/10/30 22:46:35;;;;;;;173.70;74.80;;;;;;;10.16;100.00;100691.08;635546;1305;139138;-83
2022/10/30 23:01:40;;;;;;;103.00;47.30;;;;;;;10.09;100.00;100692.69;634093;1305;140421;-81
2022/10/30 23:16:43;;;;;;;65.60;33.70;;;;;;;9.95;100.00;100704.61;634101;1319;139112;-82
2022/10/30 23:31:47;;;;;;;74.40;36.00;;;;;;;9.73;100.00;100722.38;633209;1303;139300;-82
2022/10/30 23:46:50;;;;;;;67.00;31.50;;;;;;;9.61;100.00;100720.02;632443;1320;139380;-81
